createdAt,value
2023-08-08T00:01:12.288Z,91062.84
2023-08-08T00:03:39.241Z,91051.09
2023-08-08T00:06:06.180Z,91068.53
2023-08-08T00:08:33.431Z,91060.59
2023-08-08T00:11:00.120Z,91056.94
2023-08-08T00:13:26.824Z,91064.47
2023-08-08T00:15:53.614Z,91065.28
2023-08-08T00:18:20.396Z,91069.06
2023-08-08T00:20:47.087Z,91060.88
2023-08-08T00:23:13.835Z,91060.06
2023-08-08T00:25:40.665Z,91073.50
2023-08-08T00:28:07.384Z,91067.19
2023-08-08T00:30:34.127Z,91074.09
2023-08-08T00:33:00.816Z,91060.63
2023-08-08T00:35:27.494Z,91069.19
2023-08-08T00:37:54.273Z,91062.16
2023-08-08T00:40:21.323Z,91066.16
2023-08-08T00:42:48.047Z,91059.06
2023-08-08T00:45:14.803Z,91061.06
2023-08-08T00:47:41.707Z,91057.47
2023-08-08T00:50:10.003Z,91062.06
2023-08-08T00:52:37.755Z,91063.94
2023-08-08T00:55:05.116Z,91069.59
2023-08-08T00:57:31.931Z,91067.31
2023-08-08T00:59:58.731Z,91067.47
2023-08-08T01:02:25.404Z,91069.78
2023-08-08T01:04:52.291Z,91070.72
2023-08-08T01:07:25.179Z,91071.34
2023-08-08T01:10:09.758Z,91080.47
2023-08-08T01:13:03.045Z,91081.97
2023-08-08T01:15:36.665Z,91081.28
2023-08-08T01:18:08.126Z,91085.16
2023-08-08T01:20:35.753Z,91083.69
2023-08-08T01:23:05.408Z,91090.91
2023-08-08T01:25:32.796Z,91083.94
2023-08-08T01:27:59.558Z,91085.03
2023-08-08T01:30:26.348Z,91098.66
2023-08-08T01:32:53.156Z,91092.09
2023-08-08T01:35:19.977Z,91088.88
2023-08-08T01:37:55.464Z,91099.63
2023-08-08T01:40:23.404Z,91099.63
2023-08-08T01:42:50.408Z,91102.81
2023-08-08T01:45:17.350Z,91099.66
2023-08-08T01:47:44.402Z,91095.44
2023-08-08T01:50:11.199Z,91102.38
2023-08-08T01:52:38.010Z,91102.72
2023-08-08T01:55:05.356Z,91104.31
2023-08-08T01:57:32.105Z,91096.81
2023-08-08T01:59:58.787Z,91089.16
2023-08-08T02:02:25.454Z,91090.59
2023-08-08T02:04:52.294Z,91097.84
2023-08-08T02:07:19.113Z,91097.13
2023-08-08T02:09:47.231Z,91098.59
2023-08-08T02:12:14.000Z,91093.75
2023-08-08T02:14:40.818Z,91097.19
2023-08-08T02:17:07.578Z,91097.28
2023-08-08T02:19:34.259Z,91097.66
2023-08-08T02:22:01.099Z,91102.28
2023-08-08T02:24:28.038Z,91103.78
2023-08-08T02:26:54.795Z,91107.19
2023-08-08T02:29:21.500Z,91111.19
2023-08-08T02:31:48.228Z,91102.00
2023-08-08T02:34:14.908Z,91111.19
2023-08-08T02:36:41.597Z,91112.22
2023-08-08T02:39:08.428Z,91106.28
2023-08-08T02:41:35.225Z,91109.19
2023-08-08T02:44:01.988Z,91109.09
2023-08-08T02:46:28.741Z,91122.75
2023-08-08T02:48:55.458Z,91121.81
2023-08-08T02:51:22.176Z,91125.88
2023-08-08T02:53:48.942Z,91125.16
2023-08-08T02:56:15.784Z,91138.19
2023-08-08T02:58:42.518Z,91146.59
2023-08-08T03:01:09.358Z,91141.31
2023-08-08T03:03:36.250Z,91154.38
2023-08-08T03:06:03.422Z,91150.97
2023-08-08T03:08:30.192Z,91153.09
2023-08-08T03:10:56.990Z,91151.88
2023-08-08T03:13:23.720Z,91154.53
2023-08-08T03:15:50.718Z,91157.94
2023-08-08T03:18:17.470Z,91145.84
2023-08-08T03:20:44.390Z,91153.81
2023-08-08T03:23:11.331Z,91157.56
2023-08-08T03:25:38.054Z,91163.22
2023-08-08T03:28:05.015Z,91166.81
2023-08-08T03:30:31.790Z,91166.59
2023-08-08T03:32:58.536Z,91177.16
2023-08-08T03:35:25.990Z,91166.59
2023-08-08T03:37:52.839Z,91174.91
2023-08-08T03:40:19.681Z,91176.94
2023-08-08T03:42:46.473Z,91183.97
2023-08-08T03:45:13.280Z,91183.84
2023-08-08T03:47:40.040Z,91189.00
2023-08-08T03:50:08.240Z,91174.16
2023-08-08T03:52:36.761Z,91191.84
2023-08-08T03:55:04.254Z,91192.09
2023-08-08T03:57:31.791Z,91196.44
2023-08-08T03:59:58.616Z,91198.56
2023-08-08T04:02:26.407Z,91192.66
2023-08-08T04:04:53.197Z,91198.91
2023-08-08T04:07:19.911Z,91199.22
2023-08-08T04:09:46.623Z,91199.78
2023-08-08T04:12:13.593Z,91201.50
2023-08-08T04:14:40.269Z,91198.31
2023-08-08T04:17:07.002Z,91202.63
2023-08-08T04:19:39.496Z,91209.00
2023-08-08T04:22:06.302Z,91208.66
2023-08-08T04:24:33.053Z,91211.47
2023-08-08T04:26:59.896Z,91214.34
2023-08-08T04:29:26.597Z,91214.81
2023-08-08T04:31:53.290Z,91216.03
2023-08-08T04:34:20.029Z,91220.31
2023-08-08T04:36:46.744Z,91217.28
2023-08-08T04:39:13.534Z,91215.22
2023-08-08T04:41:40.289Z,91222.50
2023-08-08T04:44:07.006Z,91215.44
2023-08-08T04:46:33.800Z,91219.22
2023-08-08T04:49:00.558Z,91221.56
2023-08-08T04:51:27.340Z,91219.25
2023-08-08T04:53:54.024Z,91230.22
2023-08-08T04:56:20.806Z,91228.19
2023-08-08T04:58:47.543Z,91231.31
2023-08-08T05:01:16.780Z,91234.91
2023-08-08T05:03:43.683Z,91243.97
2023-08-08T05:06:11.013Z,91246.28
2023-08-08T05:08:37.791Z,91253.22
2023-08-08T05:11:04.589Z,91253.28
2023-08-08T05:13:31.400Z,91241.81
2023-08-08T05:15:58.194Z,91245.75
2023-08-08T05:18:25.095Z,91244.47
2023-08-08T05:20:51.885Z,91248.53
2023-08-08T05:23:18.644Z,91257.03
2023-08-08T05:25:46.720Z,91264.59
2023-08-08T05:28:13.413Z,91274.41
2023-08-08T05:30:40.293Z,91270.84
2023-08-08T05:33:07.607Z,91270.81
2023-08-08T05:35:36.170Z,91277.22
2023-08-08T05:38:02.830Z,91283.53
2023-08-08T05:40:29.534Z,91277.38
2023-08-08T05:42:56.308Z,91286.50
2023-08-08T05:45:23.141Z,91287.00
2023-08-08T05:47:49.884Z,91289.41
2023-08-08T05:50:16.686Z,91290.72
2023-08-08T05:52:43.349Z,91294.91
2023-08-08T05:55:10.721Z,91300.28
2023-08-08T05:57:38.810Z,91308.72
2023-08-08T06:00:06.621Z,91303.00
2023-08-08T06:02:33.372Z,91310.81
2023-08-08T06:05:00.127Z,91313.28
2023-08-08T06:07:26.884Z,91312.09
2023-08-08T06:09:53.601Z,91315.44
2023-08-08T06:12:20.407Z,91324.56
2023-08-08T06:14:48.602Z,91326.16
2023-08-08T06:17:15.888Z,91329.91
2023-08-08T06:19:42.592Z,91330.03
2023-08-08T06:22:09.343Z,91333.53
2023-08-08T06:24:36.131Z,91331.28
2023-08-08T06:27:02.913Z,91328.84
2023-08-08T06:29:29.841Z,91322.91
2023-08-08T06:31:56.676Z,91317.59
2023-08-08T06:34:23.446Z,91317.25
2023-08-08T06:36:50.170Z,91317.84
2023-08-08T06:39:16.968Z,91321.66
2023-08-08T06:41:43.673Z,91326.22
2023-08-08T06:44:13.435Z,91317.63
2023-08-08T06:46:40.237Z,91318.81
2023-08-08T06:49:08.245Z,91324.34
2023-08-08T06:51:34.985Z,91324.47
2023-08-08T06:54:02.237Z,91327.88
2023-08-08T06:56:30.166Z,91329.63
2023-08-08T06:58:56.936Z,91333.91
2023-08-08T07:01:24.207Z,91340.53
2023-08-08T07:03:50.937Z,91348.81
2023-08-08T07:06:19.401Z,91341.13
2023-08-08T07:08:46.274Z,91346.16
2023-08-08T10:43:30.525Z,91416.00
2023-08-08T10:46:12.682Z,91417.50
2023-08-08T10:48:56.175Z,91419.06
2023-08-08T10:51:23.182Z,91409.44
2023-08-08T10:53:53.942Z,91405.94
2023-08-08T10:56:21.854Z,91399.75
2023-08-08T10:58:50.143Z,91400.53
2023-08-08T11:01:19.159Z,91395.13
2023-08-08T11:03:50.704Z,91394.78
2023-08-08T11:06:17.881Z,91395.63
2023-08-08T11:08:44.666Z,91389.25
2023-08-08T11:11:11.446Z,91387.28
2023-08-08T11:13:38.338Z,91379.88
2023-08-08T11:16:05.259Z,91386.50
2023-08-08T11:18:32.164Z,91382.47
2023-08-08T11:21:12.686Z,91384.41
2023-08-08T11:23:47.091Z,91387.16
2023-08-08T11:28:51.501Z,91382.47
2023-08-08T11:31:20.941Z,91375.56
2023-08-08T11:33:49.421Z,91378.41
2023-08-08T11:36:16.400Z,91376.75
2023-08-08T11:38:44.635Z,91371.09
2023-08-08T11:41:12.469Z,91361.72
2023-08-08T11:43:40.971Z,91364.56
2023-08-08T11:46:14.327Z,91361.94
2023-08-08T11:48:41.651Z,91370.41
2023-08-08T11:51:09.964Z,91356.53
2023-08-08T11:53:37.406Z,91361.22
2023-08-08T11:56:05.492Z,91364.63
2023-08-08T11:58:33.030Z,91367.38
2023-08-08T12:01:00.206Z,91350.31
2023-08-08T12:03:27.929Z,91355.91
2023-08-08T12:05:54.773Z,91363.38
2023-08-08T12:08:22.430Z,91353.38
2023-08-08T12:10:54.818Z,91355.34
2023-08-08T12:13:23.461Z,91350.91
2023-08-08T12:15:50.955Z,91346.00
2023-08-08T12:18:19.901Z,91355.16
2023-08-08T12:20:47.284Z,91341.03
2023-08-08T12:23:15.936Z,91339.84
2023-08-08T12:25:44.109Z,91343.28
2023-08-08T12:28:11.387Z,91332.59
2023-08-08T12:30:38.035Z,91331.09
2023-08-08T12:33:05.040Z,91326.75
2023-08-08T12:35:31.785Z,91335.69
2023-08-08T12:37:59.532Z,91333.38
2023-08-08T12:40:26.617Z,91327.63
2023-08-08T12:42:54.388Z,91298.78
2023-08-08T12:45:21.097Z,91326.81
2023-08-08T12:47:47.850Z,91331.13
2023-08-08T12:50:15.480Z,91327.38
2023-08-08T12:52:42.190Z,91314.69
2023-08-08T12:55:12.423Z,91321.03
2023-08-08T12:57:39.963Z,91308.81
2023-08-08T13:00:09.994Z,91314.47
2023-08-08T15:11:13.144Z,91369.31
2023-08-08T15:13:40.054Z,91362.75
2023-08-08T15:16:07.419Z,91363.88
2023-08-08T15:18:34.821Z,91367.88
2023-08-08T15:21:01.841Z,91369.50
2023-08-08T15:23:29.285Z,91370.97
2023-08-08T15:25:56.464Z,91371.44
2023-08-08T15:28:23.438Z,91361.72
2023-08-08T15:30:50.182Z,91368.81
2023-08-08T15:33:17.008Z,91370.31
2023-08-08T15:35:44.095Z,91376.88
2023-08-08T15:38:11.476Z,91371.78
2023-08-08T15:40:39.861Z,91388.72
2023-08-08T15:43:08.400Z,91386.06
2023-08-08T15:45:35.094Z,91376.50
2023-08-08T15:48:01.951Z,91386.50
2023-08-08T15:50:28.694Z,91387.88
2023-08-08T15:52:58.020Z,91395.44
2023-08-08T15:55:24.850Z,91383.84
2023-08-08T15:57:51.703Z,91398.63
2023-08-08T16:00:19.539Z,91399.19
2023-08-08T16:02:46.596Z,91400.25
2023-08-08T16:05:13.399Z,91402.22
2023-08-08T16:07:40.133Z,91403.59
2023-08-08T16:10:08.501Z,91399.34
2023-08-08T16:12:36.816Z,91410.03
2023-08-08T16:15:05.143Z,91408.75
2023-08-08T16:17:32.459Z,91412.84
2023-08-08T16:20:00.276Z,91420.66
2023-08-08T16:22:27.983Z,91414.91
2023-08-08T16:24:54.838Z,91417.06
2023-08-08T16:27:21.631Z,91415.31
2023-08-08T16:29:48.337Z,91419.19
2023-08-08T16:32:15.107Z,91423.56
2023-08-08T16:34:41.951Z,91422.41
2023-08-08T16:37:09.225Z,91423.78
2023-08-08T16:39:36.001Z,91429.31
2023-08-08T16:42:03.022Z,91429.44
2023-08-08T16:44:30.053Z,91439.75
2023-08-08T16:46:56.776Z,91434.53
2023-08-08T16:49:23.510Z,91445.28
2023-08-08T16:51:50.231Z,91430.06
2023-08-08T16:54:17.726Z,91440.44
2023-08-08T16:56:44.401Z,91436.34
2023-08-08T16:59:11.127Z,91440.59
2023-08-08T17:01:42.755Z,91441.88
2023-08-08T17:04:11.928Z,91439.53
2023-08-08T17:06:41.325Z,91443.88
2023-08-08T17:09:09.023Z,91445.34
2023-08-08T17:11:35.816Z,91446.44
2023-08-08T17:14:05.138Z,91443.66
2023-08-08T17:16:32.060Z,91446.63
2023-08-08T17:18:58.888Z,91450.38
2023-08-08T17:21:25.632Z,91459.03
2023-08-08T17:23:52.860Z,91455.97
2023-08-08T17:26:19.766Z,91452.81
2023-08-08T17:28:47.932Z,91468.59
2023-08-08T17:31:14.822Z,91462.34
2023-08-08T17:33:42.196Z,91469.88
2023-08-08T17:36:08.862Z,91464.47
2023-08-08T17:38:35.814Z,91471.16
2023-08-08T17:41:02.654Z,91478.81
2023-08-08T17:43:29.840Z,91487.63
2023-08-08T17:45:58.259Z,91490.22
2023-08-08T17:48:26.263Z,91483.63
2023-08-08T17:50:56.205Z,91488.72
2023-08-08T17:53:24.803Z,91489.34
2023-08-08T17:55:52.416Z,91496.94
2023-08-08T17:58:19.117Z,91508.06
2023-08-08T18:00:45.929Z,91505.88
2023-08-08T18:03:12.730Z,91508.00
2023-08-08T18:05:39.525Z,91515.84
2023-08-08T18:08:06.721Z,91516.06
2023-08-08T18:10:36.347Z,91520.16
2023-08-08T18:13:06.054Z,91524.69
2023-08-08T18:15:37.566Z,91524.81
2023-08-08T18:18:06.218Z,91526.59
2023-08-08T18:20:40.894Z,91537.53
2023-08-08T18:23:14.343Z,91545.19
2023-08-08T18:25:43.551Z,91553.16
2023-08-08T18:28:10.814Z,91547.38
2023-08-08T18:30:37.567Z,91552.91
2023-08-08T18:33:04.775Z,91554.16
2023-08-08T18:35:32.487Z,91548.75
2023-08-08T18:37:59.225Z,91558.97
2023-08-08T18:40:26.112Z,91563.00
2023-08-08T18:42:52.976Z,91557.16
2023-08-08T18:45:19.767Z,91564.28
2023-08-08T18:47:46.570Z,91562.63
2023-08-08T18:50:13.322Z,91566.31
2023-08-08T18:52:40.079Z,91561.81
2023-08-08T18:55:07.082Z,91570.91
2023-08-08T18:57:35.009Z,91579.25
2023-08-08T19:00:03.916Z,91583.66
2023-08-08T19:02:31.902Z,91587.06
2023-08-08T19:04:58.704Z,91589.53
2023-08-08T19:07:25.508Z,91596.16
2023-08-08T19:09:52.619Z,91589.22
2023-08-08T19:12:19.317Z,91589.75
2023-08-08T19:14:46.038Z,91593.78
2023-08-08T19:17:12.772Z,91594.91
2023-08-08T19:19:39.474Z,91595.63
2023-08-08T19:22:06.719Z,91606.38
2023-08-08T19:24:33.493Z,91596.59
2023-08-08T19:27:00.193Z,91604.53
2023-08-08T19:29:26.892Z,91605.16
2023-08-08T19:31:53.867Z,91598.59
2023-08-08T19:34:20.613Z,91604.47
2023-08-08T19:36:47.377Z,91601.00
2023-08-08T19:39:14.199Z,91606.91
2023-08-08T19:41:41.033Z,91610.81
2023-08-08T19:44:07.853Z,91601.97
2023-08-08T19:46:34.612Z,91614.16
2023-08-08T19:49:01.408Z,91608.22
2023-08-08T19:51:29.105Z,91608.19
2023-08-08T19:53:58.317Z,91618.75
2023-08-08T19:56:26.109Z,91617.19
2023-08-08T19:58:52.846Z,91614.97
2023-08-08T20:01:20.146Z,91614.53
2023-08-08T20:03:46.915Z,91619.03
2023-08-08T20:06:13.692Z,91627.50
2023-08-08T20:08:40.616Z,91624.44
2023-08-08T20:11:07.539Z,91631.59
2023-08-08T20:13:34.626Z,91633.53
2023-08-08T20:16:01.611Z,91636.72
2023-08-08T20:18:28.516Z,91633.38
2023-08-08T20:20:55.512Z,91634.47
2023-08-08T20:23:22.294Z,91639.78
2023-08-08T20:25:49.080Z,91636.81
2023-08-08T20:28:17.579Z,91644.31
2023-08-08T20:30:44.638Z,91629.22
2023-08-08T20:33:11.652Z,91630.69
2023-08-08T20:35:38.516Z,91634.03
2023-08-08T20:38:05.526Z,91646.47
2023-08-08T20:40:32.242Z,91641.97
2023-08-08T20:42:58.994Z,91645.72
2023-08-08T20:45:25.847Z,91645.72
2023-08-08T20:47:52.663Z,91643.47
2023-08-08T20:50:20.659Z,91643.56
2023-08-08T20:52:49.431Z,91641.31
2023-08-08T20:55:16.331Z,91654.88
2023-08-08T20:57:43.275Z,91643.56
2023-08-08T21:00:11.613Z,91648.84
2023-08-08T21:02:38.811Z,91650.34
2023-08-08T21:05:15.854Z,91644.66
2023-08-08T21:07:45.009Z,91638.63
2023-08-08T21:10:11.759Z,91649.19
2023-08-08T21:12:38.421Z,91655.22
2023-08-08T21:15:05.813Z,91659.34
2023-08-08T21:17:32.556Z,91658.63
2023-08-08T21:20:00.707Z,91653.34
2023-08-08T21:22:27.483Z,91654.47
2023-08-08T21:24:54.145Z,91650.34
2023-08-08T21:27:20.873Z,91661.69
2023-08-08T21:29:47.583Z,91648.88
2023-08-08T21:32:14.283Z,91654.13
2023-08-08T21:34:40.952Z,91619.13
2023-08-08T21:37:13.322Z,91648.16
2023-08-08T21:39:40.620Z,91654.91
2023-08-08T21:42:12.209Z,91651.91
2023-08-08T21:44:38.970Z,91649.66
2023-08-08T21:47:05.673Z,91647.38
2023-08-08T21:49:32.365Z,91644.75
2023-08-08T21:51:59.267Z,91641.34
2023-08-08T21:54:25.955Z,91647.75
2023-08-08T21:56:52.885Z,91648.06
2023-08-08T21:59:19.662Z,91637.53
2023-08-08T22:01:46.327Z,91640.53
2023-08-08T22:04:13.046Z,91638.31
2023-08-08T22:06:39.786Z,91635.31
2023-08-08T22:09:06.677Z,91628.56
2023-08-08T22:11:33.660Z,91631.56
2023-08-08T22:14:02.047Z,91632.97
2023-08-08T22:16:30.189Z,91633.72
2023-08-08T22:18:56.913Z,91630.00
2023-08-08T22:21:23.775Z,91628.09
2023-08-08T22:23:53.022Z,91626.94
2023-08-08T22:26:19.686Z,91629.63
2023-08-08T22:28:46.449Z,91629.25
2023-08-08T22:31:13.347Z,91635.25
2023-08-08T22:33:40.239Z,91630.34
2023-08-08T22:36:07.800Z,91626.22
2023-08-08T22:38:34.559Z,91634.13
2023-08-08T22:41:01.949Z,91628.47
2023-08-08T22:43:28.672Z,91629.22
2023-08-08T22:45:55.377Z,91628.47
2023-08-08T22:48:22.063Z,91638.22
2023-08-08T22:50:48.840Z,91633.25
2023-08-08T22:53:15.541Z,91634.25
2023-08-08T22:55:42.279Z,91623.06
2023-08-08T22:58:09.075Z,91627.25
2023-08-08T23:00:36.833Z,91621.25
2023-08-08T23:03:05.703Z,91628.69
2023-08-08T23:05:32.598Z,91637.31
2023-08-08T23:07:59.309Z,91636.47
2023-08-08T23:10:26.336Z,91626.38
2023-08-08T23:12:53.123Z,91630.53
2023-08-08T23:15:19.831Z,91626.81
2023-08-08T23:17:50.905Z,91627.78
2023-08-08T23:20:17.618Z,91631.56
2023-08-08T23:22:44.321Z,91616.88
2023-08-08T23:25:11.021Z,91621.16
2023-08-08T23:27:37.764Z,91619.47
2023-08-08T23:30:05.405Z,91619.13
2023-08-08T23:32:32.092Z,91619.19
2023-08-08T23:34:58.817Z,91620.00
2023-08-08T23:37:25.472Z,91618.88
2023-08-08T23:39:52.178Z,91616.22
2023-08-08T23:42:18.916Z,91619.22
2023-08-08T23:44:45.675Z,91622.25
2023-08-08T23:47:12.797Z,91624.09
2023-08-08T23:49:39.738Z,91616.91
2023-08-08T23:52:07.656Z,91622.63
2023-08-08T23:54:37.792Z,91623.94
2023-08-08T23:57:05.064Z,91620.78
2023-08-08T23:59:31.965Z,91623.13
